createdAt,value
2022-11-26T00:02:16.816Z,12.42
2022-11-26T00:04:43.843Z,12.43
2022-11-26T00:07:15.760Z,12.41
2022-11-26T00:09:42.915Z,12.39
2022-11-26T00:12:17.009Z,12.35
2022-11-26T00:14:44.378Z,12.35
2022-11-26T00:17:13.354Z,12.35
2022-11-26T00:19:40.903Z,12.33
2022-11-26T00:22:24.421Z,12.30
2022-11-26T00:24:52.832Z,12.31
2022-11-26T00:27:21.680Z,12.29
2022-11-26T00:29:48.656Z,12.28
2022-11-26T00:32:18.590Z,12.26
2022-11-26T00:34:46.369Z,12.24
2022-11-26T00:37:21.266Z,12.23
2022-11-26T00:39:49.106Z,12.22
2022-11-26T00:42:16.800Z,12.22
2022-11-26T00:44:43.771Z,12.22
2022-11-26T00:47:10.806Z,12.23
2022-11-26T00:49:38.110Z,12.24
2022-11-26T00:52:14.679Z,12.23
2022-11-26T00:54:42.954Z,12.20
2022-11-26T00:57:11.327Z,12.20
2022-11-26T00:59:38.266Z,12.17
2022-11-26T01:02:05.261Z,12.16
2022-11-26T01:04:33.281Z,12.16
2022-11-26T01:07:00.314Z,12.17
2022-11-26T01:09:27.295Z,12.19
2022-11-26T01:11:55.667Z,12.20
2022-11-26T01:14:25.222Z,12.21
2022-11-26T01:16:55.704Z,12.23
2022-11-26T01:19:22.892Z,12.22
2022-11-26T01:21:49.832Z,12.26
2022-11-26T01:24:16.851Z,12.29
2022-11-26T01:26:45.147Z,12.31
2022-11-26T01:29:17.326Z,12.33
2022-11-26T01:31:45.105Z,12.35
2022-11-26T01:34:12.152Z,12.33
2022-11-26T01:36:41.284Z,12.33
2022-11-26T01:39:16.803Z,12.33
2022-11-26T01:41:52.166Z,12.35
2022-11-26T01:44:24.859Z,12.38
2022-11-26T01:46:53.172Z,12.39
2022-11-26T01:49:23.012Z,12.40
2022-11-26T01:52:00.825Z,12.37
2022-11-26T01:54:28.520Z,12.32
2022-11-26T01:57:03.242Z,12.28
2022-11-26T01:59:36.618Z,12.21
2022-11-26T02:02:04.607Z,12.21
2022-11-26T02:04:37.921Z,12.17
2022-11-26T02:07:05.569Z,12.20
2022-11-26T02:09:33.387Z,12.18
2022-11-26T02:12:00.859Z,12.15
2022-11-26T02:14:36.895Z,12.05
2022-11-26T02:17:21.333Z,11.86
2022-11-26T02:20:33.502Z,11.70
2022-11-26T02:23:37.621Z,11.60
2022-11-26T02:26:44.351Z,11.50
2022-11-26T02:29:22.987Z,11.51
2022-11-26T02:31:59.965Z,11.49
2022-11-26T02:34:37.807Z,11.49
2022-11-26T02:37:13.242Z,11.52
2022-11-26T02:39:40.471Z,11.56
2022-11-26T02:42:25.953Z,11.53
2022-11-26T02:44:57.399Z,11.54
2022-11-26T02:47:29.317Z,11.47
2022-11-26T02:50:02.415Z,11.42
2022-11-26T02:52:33.089Z,11.37
2022-11-26T02:55:05.862Z,11.36
2022-11-26T02:57:41.344Z,11.34
2022-11-26T03:00:10.347Z,11.32
2022-11-26T03:02:45.616Z,11.29
2022-11-26T03:05:18.056Z,11.23
2022-11-26T03:07:49.372Z,11.22
2022-11-26T03:10:17.152Z,11.19
2022-11-26T03:12:44.100Z,11.17
2022-11-26T03:15:11.967Z,11.13
2022-11-26T03:17:40.528Z,11.06
2022-11-26T03:20:08.917Z,11.07
2022-11-26T03:22:36.548Z,11.05
2022-11-26T03:25:05.024Z,11.05
2022-11-26T03:27:32.158Z,11.03
2022-11-26T03:29:59.093Z,11.03
2022-11-26T03:32:26.184Z,11.03
2022-11-26T03:34:54.531Z,11.05
2022-11-26T03:37:21.538Z,11.06
2022-11-26T03:39:48.508Z,11.07
2022-11-26T03:42:15.467Z,11.12
2022-11-26T03:44:42.409Z,11.13
2022-11-26T03:47:09.348Z,11.15
2022-11-26T03:49:36.329Z,11.14
2022-11-26T03:52:04.999Z,11.10
2022-11-26T03:54:31.992Z,11.07
2022-11-26T03:56:59.039Z,11.07
2022-11-26T03:59:26.037Z,11.06
2022-11-26T04:01:53.091Z,11.06
2022-11-26T04:04:21.189Z,11.08
2022-11-26T04:06:48.140Z,11.08
2022-11-26T04:09:16.510Z,11.08
2022-11-26T04:11:43.515Z,11.05
2022-11-26T04:14:10.461Z,11.04
2022-11-26T04:16:37.859Z,11.09
2022-11-26T04:19:04.949Z,11.20
2022-11-26T04:21:31.913Z,11.27
2022-11-26T04:23:58.900Z,11.31
2022-11-26T04:26:27.270Z,11.35
2022-11-26T04:28:54.287Z,11.36
2022-11-26T04:31:21.383Z,11.37
2022-11-26T04:33:48.405Z,11.36
2022-11-26T04:36:15.394Z,11.36
2022-11-26T04:38:42.420Z,11.34
2022-11-26T04:41:09.382Z,11.32
2022-11-26T04:43:37.813Z,11.32
2022-11-26T04:46:05.155Z,11.30
2022-11-26T04:48:32.611Z,11.29
2022-11-26T04:50:59.631Z,11.29
2022-11-26T04:53:26.675Z,11.32
2022-11-26T04:55:53.858Z,11.32
2022-11-26T04:58:21.096Z,11.31
2022-11-26T05:00:51.179Z,11.28
2022-11-26T05:03:18.545Z,11.22
2022-11-26T05:05:46.537Z,11.17
2022-11-26T05:08:13.863Z,11.14
2022-11-26T05:10:41.290Z,11.15
2022-11-26T05:13:08.453Z,11.17
2022-11-26T05:15:35.482Z,11.16
2022-11-26T05:18:04.256Z,11.16
2022-11-26T05:20:31.544Z,11.17
2022-11-26T05:22:58.478Z,11.19
2022-11-26T05:25:25.457Z,11.15
2022-11-26T05:27:52.390Z,11.01
2022-11-26T05:30:19.864Z,10.95
2022-11-26T05:32:46.825Z,10.99
2022-11-26T05:35:15.464Z,10.99
2022-11-26T05:37:42.494Z,10.92
2022-11-26T05:40:11.363Z,10.90
2022-11-26T05:42:38.762Z,10.95
2022-11-26T05:45:07.821Z,10.95
2022-11-26T05:47:34.862Z,10.89
2022-11-26T05:50:02.031Z,10.82
2022-11-26T05:52:30.647Z,10.76
2022-11-26T05:54:57.641Z,10.64
2022-11-26T05:57:24.610Z,10.54
2022-11-26T05:59:51.645Z,10.52
2022-11-26T06:02:18.872Z,10.61
2022-11-26T06:04:45.966Z,10.61
2022-11-26T06:07:13.004Z,10.62
2022-11-26T06:09:41.535Z,10.50
2022-11-26T06:12:08.617Z,10.47
2022-11-26T06:14:40.310Z,10.49
2022-11-26T06:17:09.934Z,10.53
2022-11-26T06:19:36.873Z,10.56
2022-11-26T06:22:03.895Z,10.63
2022-11-26T06:24:32.201Z,10.71
2022-11-26T06:27:00.935Z,10.79
2022-11-26T06:29:28.474Z,10.88
2022-11-26T06:31:55.831Z,10.96
2022-11-26T06:34:23.117Z,11.04
2022-11-26T06:36:50.501Z,10.85
2022-11-26T06:39:17.516Z,10.77
2022-11-26T06:41:44.530Z,10.73
2022-11-26T06:44:12.814Z,10.76
2022-11-26T06:46:39.807Z,10.70
2022-11-26T06:49:07.428Z,10.74
2022-11-26T06:51:34.405Z,10.77
2022-11-26T06:54:01.757Z,10.83
2022-11-26T06:56:29.029Z,10.91
2022-11-26T06:58:56.254Z,10.98
2022-11-26T07:01:26.701Z,11.06
2022-11-26T07:03:54.022Z,11.14
2022-11-26T07:06:24.430Z,11.06
2022-11-26T07:08:53.390Z,10.94
2022-11-26T07:11:22.615Z,10.85
2022-11-26T07:13:49.909Z,10.87
2022-11-26T07:16:16.951Z,10.91
2022-11-26T07:18:48.996Z,10.89
2022-11-26T07:21:17.174Z,10.87
2022-11-26T07:23:44.178Z,10.77
2022-11-26T07:26:13.329Z,10.71
2022-11-26T07:28:41.233Z,10.68
2022-11-26T07:31:16.508Z,10.65
2022-11-26T07:33:46.806Z,10.69
2022-11-26T07:36:18.140Z,10.69
2022-11-26T07:38:45.778Z,10.64
2022-11-26T07:41:16.743Z,10.59
2022-11-26T07:43:45.017Z,10.64
2022-11-26T07:46:14.155Z,10.68
2022-11-26T07:48:41.586Z,10.67
2022-11-26T07:51:17.783Z,10.55
2022-11-26T07:53:44.949Z,10.47
2022-11-26T07:56:11.943Z,10.52
2022-11-26T07:58:38.932Z,10.55
2022-11-26T08:01:10.737Z,10.54
2022-11-26T08:03:39.453Z,10.54
2022-11-26T08:06:15.073Z,10.53
2022-11-26T08:08:42.643Z,10.56
2022-11-26T08:11:14.938Z,10.58
2022-11-26T08:13:42.367Z,10.56
2022-11-26T08:16:10.727Z,10.44
2022-11-26T08:18:38.118Z,10.38
2022-11-26T08:21:05.939Z,10.40
2022-11-26T08:23:35.351Z,10.46
2022-11-26T08:26:22.571Z,10.55
2022-11-26T08:28:49.958Z,10.61
2022-11-26T08:31:17.748Z,10.69
2022-11-26T08:33:45.726Z,10.77
2022-11-26T08:36:12.905Z,10.77
2022-11-26T08:38:41.426Z,10.69
2022-11-26T08:41:12.486Z,10.60
2022-11-26T08:44:05.066Z,10.68
2022-11-26T08:46:27.558Z,10.83
2022-11-26T08:48:56.296Z,10.92
2022-11-26T08:51:24.526Z,10.99
2022-11-26T08:53:52.823Z,11.11
2022-11-26T08:56:19.872Z,11.15
2022-11-26T08:58:48.630Z,11.19
2022-11-26T09:01:19.140Z,11.23
2022-11-26T09:03:48.246Z,11.17
2022-11-26T09:06:15.418Z,11.19
2022-11-26T09:09:01.199Z,11.22
2022-11-26T09:11:29.520Z,11.23
2022-11-26T09:13:58.389Z,11.27
2022-11-26T09:16:26.998Z,11.31
2022-11-26T09:18:54.493Z,11.41
2022-11-26T09:21:22.852Z,11.48
2022-11-26T09:23:49.919Z,11.47
2022-11-26T09:26:18.163Z,11.46
2022-11-26T09:28:46.681Z,11.48
2022-11-26T09:31:14.190Z,11.42
2022-11-26T09:33:41.803Z,11.36
2022-11-26T09:36:11.799Z,11.37
2022-11-26T09:38:40.396Z,11.38
2022-11-26T09:41:26.628Z,11.38
2022-11-26T09:44:25.566Z,11.43
2022-11-26T09:47:13.661Z,11.43
2022-11-26T09:49:56.971Z,11.48
2022-11-26T09:52:30.178Z,11.53
2022-11-26T09:55:11.545Z,11.51
2022-11-26T09:57:44.355Z,11.49
2022-11-26T10:00:25.118Z,11.47
2022-11-26T10:02:54.177Z,11.58
2022-11-26T10:05:31.747Z,11.73
2022-11-26T10:08:13.310Z,11.83
2022-11-26T10:10:51.977Z,11.95
2022-11-26T10:13:26.563Z,12.03
2022-11-26T10:16:11.387Z,12.04
2022-11-26T10:18:50.122Z,12.05
2022-11-26T10:21:37.910Z,11.92
2022-11-26T10:24:20.589Z,11.84
2022-11-26T10:26:49.302Z,11.73
2022-11-26T10:29:24.910Z,11.73
2022-11-26T10:31:58.545Z,11.76
2022-11-26T10:34:39.424Z,11.86
2022-11-26T10:37:07.301Z,11.86
2022-11-26T10:39:34.259Z,11.87
2022-11-26T10:42:09.272Z,11.88
2022-11-26T10:44:42.163Z,11.88
2022-11-26T10:47:27.652Z,12.02
2022-11-26T10:50:39.534Z,12.16
2022-11-26T10:53:05.771Z,12.29
2022-11-26T10:55:39.420Z,12.51
2022-11-26T10:58:16.306Z,12.66
2022-11-26T11:00:53.858Z,12.74
2022-11-26T11:03:44.974Z,12.71
2022-11-26T11:06:42.861Z,12.64
2022-11-26T11:09:34.661Z,12.56
2022-11-26T11:12:21.849Z,12.64
2022-11-26T11:14:50.792Z,12.67
2022-11-26T11:17:34.705Z,12.67
2022-11-26T11:20:26.551Z,12.65
2022-11-26T11:23:01.355Z,12.65
2022-11-26T11:25:31.667Z,12.68
2022-11-26T11:28:12.066Z,12.76
2022-11-26T11:30:42.163Z,12.83
2022-11-26T11:33:17.727Z,12.89
2022-11-26T11:36:04.210Z,12.95
2022-11-26T11:38:44.555Z,12.94
2022-11-26T11:41:21.979Z,12.85
2022-11-26T11:43:49.444Z,12.83
2022-11-26T11:47:06.078Z,12.84
2022-11-26T11:49:55.522Z,12.97
2022-11-26T11:52:38.429Z,12.96
2022-11-26T11:55:21.416Z,12.91
2022-11-26T11:58:22.579Z,12.89
2022-11-26T12:01:00.128Z,12.97
2022-11-26T12:03:55.864Z,13.04
2022-11-26T12:06:39.777Z,13.14
2022-11-26T12:09:21.910Z,13.24
2022-11-26T12:11:57.342Z,13.31
2022-11-26T12:14:30.131Z,13.39
2022-11-26T12:17:05.294Z,13.45
2022-11-26T12:19:40.575Z,13.48
2022-11-26T12:22:20.067Z,13.49
2022-11-26T12:24:55.666Z,13.46
2022-11-26T12:27:33.601Z,13.46
2022-11-26T12:30:12.501Z,13.45
2022-11-26T12:32:49.328Z,13.50
2022-11-26T12:35:29.989Z,13.52
2022-11-26T12:38:01.970Z,13.56
2022-11-26T12:40:38.006Z,13.51
2022-11-26T12:43:13.935Z,13.52
2022-11-26T12:45:50.864Z,13.55
2022-11-26T12:48:43.349Z,13.44
2022-11-26T12:51:26.692Z,13.44
2022-11-26T12:54:10.639Z,13.42
2022-11-26T12:56:50.627Z,13.42
2022-11-26T12:59:24.399Z,13.45
2022-11-26T13:01:51.615Z,13.50
2022-11-26T13:04:37.163Z,13.48
2022-11-26T13:07:23.384Z,13.38
2022-11-26T13:10:06.546Z,13.34
2022-11-26T13:12:51.859Z,13.35
2022-11-26T13:15:28.127Z,13.31
2022-11-26T13:17:58.646Z,13.31
2022-11-26T13:21:00.794Z,13.29
2022-11-26T13:23:50.554Z,13.34
2022-11-26T13:26:41.012Z,13.39
2022-11-26T13:29:44.434Z,13.46
2022-11-26T13:32:50.945Z,13.57
2022-11-26T13:35:35.953Z,13.67
2022-11-26T13:38:22.273Z,13.73
2022-11-26T13:41:25.779Z,13.66
2022-11-26T13:44:21.006Z,13.65
2022-11-26T13:46:55.681Z,13.60
2022-11-26T13:49:34.885Z,13.46
2022-11-26T13:52:09.989Z,13.46
2022-11-26T13:54:42.977Z,13.53
2022-11-26T13:57:17.870Z,13.52
2022-11-26T13:59:50.325Z,13.50
2022-11-26T14:02:44.331Z,13.44
2022-11-26T14:05:15.356Z,13.52
2022-11-26T14:07:44.782Z,13.58
2022-11-26T14:10:42.238Z,13.58
2022-11-26T14:13:16.454Z,13.66
2022-11-26T14:15:59.225Z,13.55
2022-11-26T14:18:58.969Z,13.48
2022-11-26T14:21:27.299Z,13.48
2022-11-26T14:23:56.949Z,13.49
2022-11-26T14:26:30.642Z,13.49
2022-11-26T14:29:12.950Z,13.47
2022-11-26T14:31:50.121Z,13.36
2022-11-26T14:34:27.317Z,13.30
2022-11-26T14:36:58.569Z,13.30
2022-11-26T14:39:27.309Z,13.36
2022-11-26T14:42:01.924Z,13.33
2022-11-26T14:44:31.344Z,13.30
2022-11-26T14:47:09.351Z,13.23
2022-11-26T14:49:40.574Z,13.30
2022-11-26T14:52:19.520Z,13.32
2022-11-26T14:54:51.523Z,13.38
2022-11-26T14:57:25.702Z,13.36
2022-11-26T14:59:59.838Z,13.34
2022-11-26T15:02:31.223Z,13.37
2022-11-26T15:05:01.421Z,13.33
2022-11-26T15:07:30.903Z,13.32
2022-11-26T15:10:06.890Z,13.34
2022-11-26T15:12:36.292Z,13.27
2022-11-26T15:15:05.921Z,13.26
2022-11-26T15:17:35.364Z,13.28
2022-11-26T15:20:08.237Z,13.24
2022-11-26T15:22:39.866Z,13.27
2022-11-26T15:25:18.266Z,13.29
2022-11-26T15:27:59.020Z,13.30
2022-11-26T15:30:29.472Z,13.30
2022-11-26T15:33:00.622Z,13.33
2022-11-26T15:35:29.317Z,13.32
2022-11-26T15:37:57.422Z,13.35
2022-11-26T15:40:31.482Z,13.33
2022-11-26T15:43:02.678Z,13.31
2022-11-26T15:45:37.836Z,13.30
2022-11-26T15:48:27.469Z,13.28
2022-11-26T15:50:57.397Z,13.29
2022-11-26T15:53:30.422Z,13.26
2022-11-26T15:55:58.514Z,13.27
2022-11-26T15:58:29.650Z,13.23
2022-11-26T16:01:02.337Z,13.20
2022-11-26T16:03:52.608Z,13.15
2022-11-26T16:06:32.822Z,13.17
2022-11-26T16:09:06.597Z,13.18
2022-11-26T16:11:36.969Z,13.18
2022-11-26T16:14:32.914Z,13.09
2022-11-26T16:17:08.077Z,13.08
2022-11-26T16:19:42.264Z,13.06
2022-11-26T16:22:17.405Z,13.06
2022-11-26T16:24:44.797Z,13.04
2022-11-26T16:27:27.407Z,13.05
2022-11-26T16:29:54.473Z,13.11
2022-11-26T16:32:21.931Z,13.16
2022-11-26T16:34:50.294Z,13.16
2022-11-26T16:37:21.694Z,13.16
2022-11-26T16:39:50.701Z,13.17
2022-11-26T16:42:21.745Z,13.16
2022-11-26T16:44:49.650Z,13.20
2022-11-26T16:47:24.029Z,13.22
2022-11-26T16:49:53.592Z,13.27
2022-11-26T16:52:21.484Z,13.30
2022-11-26T16:54:49.355Z,13.30
2022-11-26T16:57:20.372Z,13.32
2022-11-26T16:59:51.889Z,13.34
2022-11-26T17:02:22.108Z,13.30
2022-11-26T17:04:49.662Z,13.29
2022-11-26T17:07:24.135Z,13.30
2022-11-26T17:09:52.233Z,13.32
2022-11-26T17:12:22.481Z,13.29
2022-11-26T17:14:49.911Z,13.28
2022-11-26T17:17:23.867Z,13.27
2022-11-26T17:19:52.663Z,13.24
2022-11-26T17:22:21.355Z,13.25
2022-11-26T17:24:48.326Z,13.23
2022-11-26T17:27:18.445Z,13.21
2022-11-26T17:29:47.145Z,13.18
2022-11-26T17:32:17.717Z,13.15
2022-11-26T17:34:46.088Z,13.12
2022-11-26T17:37:17.336Z,13.13
2022-11-26T17:39:49.365Z,13.12
2022-11-26T17:42:19.635Z,13.12
2022-11-26T17:44:46.589Z,13.10
2022-11-26T17:47:17.751Z,13.14
2022-11-26T17:49:46.540Z,13.11
2022-11-26T17:52:13.726Z,13.09
2022-11-26T17:54:41.130Z,13.08
2022-11-26T17:57:11.109Z,13.09
2022-11-26T17:59:40.109Z,13.06
2022-11-26T18:02:08.069Z,13.05
2022-11-26T18:04:35.355Z,13.03
2022-11-26T18:07:07.230Z,12.99
2022-11-26T18:09:35.151Z,12.99
2022-11-26T18:12:04.026Z,13.00
2022-11-26T18:14:35.557Z,13.01
2022-11-26T18:17:03.594Z,13.01
2022-11-26T18:19:30.831Z,13.06
2022-11-26T18:21:57.823Z,13.08
2022-11-26T18:24:24.800Z,13.15
2022-11-26T18:26:56.064Z,13.20
2022-11-26T18:29:23.516Z,13.22
2022-11-26T18:31:52.606Z,13.20
2022-11-26T18:34:19.767Z,13.18
2022-11-26T18:36:52.208Z,13.18
2022-11-26T18:39:20.719Z,13.18
2022-11-26T18:41:47.661Z,13.19
2022-11-26T18:44:14.714Z,13.21
2022-11-26T18:46:41.664Z,13.22
2022-11-26T18:49:09.985Z,13.27
2022-11-26T18:51:36.926Z,13.33
2022-11-26T18:54:04.211Z,13.35
2022-11-26T18:56:31.561Z,13.37
2022-11-26T18:58:58.585Z,13.35
2022-11-26T19:01:29.593Z,13.31
2022-11-26T19:03:58.569Z,13.30
2022-11-26T19:06:29.890Z,13.29
2022-11-26T19:08:59.569Z,13.29
2022-11-26T19:11:27.757Z,13.29
2022-11-26T19:13:57.021Z,13.23
2022-11-26T19:16:27.274Z,13.21
2022-11-26T19:18:54.891Z,13.20
2022-11-26T19:21:26.684Z,13.20
2022-11-26T19:23:58.264Z,13.22
2022-11-26T19:26:25.303Z,13.20
2022-11-26T19:28:52.649Z,13.21
2022-11-26T19:31:22.846Z,13.18
2022-11-26T19:33:54.332Z,13.19
2022-11-26T19:36:22.021Z,13.21
2022-11-26T19:38:56.082Z,13.21
2022-11-26T19:41:25.781Z,13.22
2022-11-26T19:43:54.197Z,13.20
2022-11-26T19:46:23.622Z,13.18
2022-11-26T19:48:52.930Z,13.17
2022-11-26T19:51:23.414Z,13.16
2022-11-26T19:53:54.609Z,13.15
2022-11-26T19:56:24.528Z,13.13
2022-11-26T19:58:54.056Z,13.11
2022-11-26T20:01:22.141Z,13.09
2022-11-26T20:03:50.225Z,13.08
2022-11-26T20:06:21.367Z,13.03
2022-11-26T20:08:49.181Z,13.02
2022-11-26T20:11:18.843Z,12.98
2022-11-26T20:13:48.686Z,12.95
2022-11-26T20:16:19.293Z,12.91
2022-11-26T20:18:47.613Z,12.90
2022-11-26T20:21:21.468Z,12.87
2022-11-26T20:23:50.766Z,12.85
2022-11-26T20:26:25.204Z,12.83
2022-11-26T20:28:53.622Z,12.83
2022-11-26T20:31:23.995Z,12.82
2022-11-26T20:33:52.718Z,12.80
2022-11-26T20:36:22.547Z,12.76
2022-11-26T20:38:53.285Z,12.71
2022-11-26T20:41:24.469Z,12.66
2022-11-26T20:43:57.923Z,12.64
2022-11-26T20:46:27.059Z,12.61
2022-11-26T20:48:54.192Z,12.61
2022-11-26T20:51:22.271Z,12.58
2022-11-26T20:53:51.193Z,12.53
2022-11-26T20:56:21.719Z,12.51
2022-11-26T20:58:50.542Z,12.47
2022-11-26T21:01:20.965Z,12.44
2022-11-26T21:03:48.483Z,12.44
2022-11-26T21:06:18.061Z,12.40
2022-11-26T21:08:45.278Z,12.38
2022-11-26T21:11:13.645Z,12.38
2022-11-26T21:13:42.570Z,12.36
2022-11-26T21:16:14.568Z,12.33
2022-11-26T21:18:41.817Z,12.31
2022-11-26T21:21:10.461Z,12.31
2022-11-26T21:23:39.146Z,12.33
2022-11-26T21:26:07.814Z,12.32
2022-11-26T21:28:35.695Z,12.29
2022-11-26T21:31:10.155Z,12.27
2022-11-26T21:33:37.184Z,12.30
2022-11-26T21:36:06.388Z,12.31
2022-11-26T21:38:33.705Z,12.33
2022-11-26T21:41:05.277Z,12.32
2022-11-26T21:43:32.356Z,12.30
2022-11-26T21:46:02.736Z,12.29
2022-11-26T21:48:32.400Z,12.21
2022-11-26T21:50:59.457Z,12.18
2022-11-26T21:53:26.446Z,12.16
2022-11-26T21:55:53.472Z,12.17
2022-11-26T21:58:20.431Z,12.20
2022-11-26T22:00:47.389Z,12.22
2022-11-26T22:03:14.279Z,12.23
2022-11-26T22:05:43.457Z,12.22
2022-11-26T22:08:10.576Z,12.21
2022-11-26T22:10:37.644Z,12.21
2022-11-26T22:13:04.619Z,12.17
2022-11-26T22:15:31.555Z,12.14
2022-11-26T22:17:58.478Z,12.11
2022-11-26T22:20:25.436Z,12.09
2022-11-26T22:22:53.755Z,12.08
2022-11-26T22:25:22.498Z,12.04
2022-11-26T22:27:49.911Z,12.05
2022-11-26T22:30:17.640Z,12.05
2022-11-26T22:32:44.787Z,12.08
2022-11-26T22:35:11.772Z,12.10
2022-11-26T22:37:38.729Z,12.11
2022-11-26T22:40:09.719Z,12.09
2022-11-26T22:42:36.654Z,12.06
2022-11-26T22:45:04.559Z,12.06
2022-11-26T22:47:31.459Z,12.03
2022-11-26T22:49:58.412Z,12.05
2022-11-26T22:52:25.371Z,12.03
2022-11-26T22:54:52.326Z,12.04
2022-11-26T22:57:25.073Z,12.07
2022-11-26T22:59:52.708Z,12.08
2022-11-26T23:02:19.763Z,12.08
2022-11-26T23:04:46.737Z,12.10
2022-11-26T23:07:13.720Z,12.07
2022-11-26T23:09:46.384Z,12.06
2022-11-26T23:12:13.756Z,12.03
2022-11-26T23:14:42.110Z,12.01
2022-11-26T23:17:09.056Z,12.00
2022-11-26T23:19:36.067Z,12.02
2022-11-26T23:22:03.053Z,12.02
2022-11-26T23:24:30.012Z,11.97
2022-11-26T23:26:56.936Z,11.93
2022-11-26T23:29:23.880Z,11.87
2022-11-26T23:31:52.356Z,11.85
2022-11-26T23:34:19.365Z,11.81
2022-11-26T23:36:46.365Z,11.79
2022-11-26T23:39:13.700Z,11.80
2022-11-26T23:41:40.754Z,11.78
2022-11-26T23:44:07.818Z,11.77
2022-11-26T23:46:35.392Z,11.75
2022-11-26T23:49:05.070Z,11.73
2022-11-26T23:51:33.512Z,11.69
2022-11-26T23:54:00.610Z,11.64
2022-11-26T23:56:30.495Z,11.57
2022-11-26T23:59:00.183Z,11.55
